Greifswald — 3FEC8 — position and weather

sailwx.info

Track history (hours):
 
Tides and Currents Weather Stations Pressure Air Temp Water Temp Dewpoint Dewpoint Depression Visibility Wind Speed Wind Dir Waves Ship Positions

Greifswald

Last reported at 2014-Oct-22 13:29 UTC. Time now 2014-Oct-22 14:02 UTC.
Position N 43°59' E 034°17'.

Length 191 m; draft 6.2 m.

Type: Ship. MMSI: 370492000.

Date/timePositionNaut miles runAvg speedWind from/ knotsBaromVisibWave heightAir tempDewpointWater temp
2014-Oct-22 13:29N 43°59' E 034°17'1213.3
2014-Oct-22 12:34N 43°54' E 034°33'1313.5
2014-Oct-22 11:34N 43°49' E 034°50'1413.6
2014-Oct-22 10:34N 43°44' E 035°07'1413.7
2014-Oct-22 09:33N 43°38' E 035°24'1313.3
2014-Oct-22 08:33N 43°33' E 035°41'1313.3
2014-Oct-22 07:33N 43°28' E 035°58'  
2014-Oct-17 15:33N 43°01' E 034°12'249 9.5
2014-Oct-16 13:22N 44°06' E 028°40'12 3.5
2014-Oct-16 10:04N 44°02' E 028°55'14811.6
2014-Oct-15 21:22N 46°07' E 030°46'1111.9
2014-Oct-15 20:27N 46°18' E 030°44'4 0.2
2014-Oct-14 19:24N 46°21' E 030°39'0 0.0
2014-Oct-14 18:33N 46°21' E 030°39'  
Track history (hours):
 
Tides and Currents Weather Stations Pressure Air Temp Water Temp Dewpoint Dewpoint Depression Visibility Wind Speed Wind Dir Waves Ship Positions

Greifswald

Last reported at 2014-Oct-22 13:29 UTC. Time now 2014-Oct-22 14:02 UTC.
Position N 43°59' E 034°17'.

Length 191 m; draft 6.2 m.

Type: Ship. MMSI: 370492000.

Date/timePositionNaut miles runAvg speedWind from/ knotsBaromVisibWave heightAir tempDewpointWater temp
2014-Oct-22 13:29N 43°59' E 034°17'1213.3
2014-Oct-22 12:34N 43°54' E 034°33'1313.5
2014-Oct-22 11:34N 43°49' E 034°50'1413.6
2014-Oct-22 10:34N 43°44' E 035°07'1413.7
2014-Oct-22 09:33N 43°38' E 035°24'1313.3
2014-Oct-22 08:33N 43°33' E 035°41'1313.3
2014-Oct-22 07:33N 43°28' E 035°58'  
2014-Oct-17 15:33N 43°01' E 034°12'249 9.5
2014-Oct-16 13:22N 44°06' E 028°40'12 3.5
2014-Oct-16 10:04N 44°02' E 028°55'14811.6
2014-Oct-15 21:22N 46°07' E 030°46'1111.9
2014-Oct-15 20:27N 46°18' E 030°44'4 0.2
2014-Oct-14 19:24N 46°21' E 030°39'0 0.0
2014-Oct-14 18:33N 46°21' E 030°39'  

Dump ship's entire track history